createdAt,value
2019-03-19T00:00:06.036Z,4.38
2019-03-19T00:01:05.690Z,4.38
2019-03-19T00:02:05.937Z,4.38
2019-03-19T00:03:05.429Z,4.38
2019-03-19T00:04:05.975Z,4.38
2019-03-19T00:05:05.140Z,4.38
2019-03-19T00:06:05.217Z,4.38
2019-03-19T00:07:05.536Z,4.50
2019-03-19T00:08:05.769Z,4.44
2019-03-19T00:09:05.444Z,4.44
2019-03-19T00:10:05.862Z,4.44
2019-03-19T00:11:05.770Z,4.38
2019-03-19T00:12:05.127Z,4.44
2019-03-19T00:13:05.853Z,4.38
2019-03-19T00:14:05.851Z,4.38
2019-03-19T00:15:06.100Z,4.38
2019-03-19T00:16:05.146Z,4.38
2019-03-19T00:17:05.291Z,4.38
2019-03-19T00:18:05.438Z,4.31
2019-03-19T00:19:05.670Z,4.25
2019-03-19T00:20:06.000Z,4.25
2019-03-19T00:21:05.782Z,4.25
2019-03-19T00:22:05.928Z,4.19
2019-03-19T00:23:06.016Z,4.19
2019-03-19T00:24:05.057Z,4.19
2019-03-19T00:25:05.376Z,4.19
2019-03-19T00:26:05.927Z,4.12
2019-03-19T00:27:05.913Z,4.12
2019-03-19T00:28:05.113Z,4.19
2019-03-19T00:29:05.782Z,4.12
2019-03-19T00:30:05.821Z,4.12
2019-03-19T00:31:05.614Z,4.12
2019-03-19T00:32:06.168Z,4.06
2019-03-19T00:33:05.526Z,4.06
2019-03-19T00:34:05.117Z,4.00
2019-03-19T00:35:05.210Z,4.00
2019-03-19T00:36:05.763Z,4.00
2019-03-19T00:37:05.866Z,4.00
2019-03-19T00:38:05.843Z,4.00
2019-03-19T00:39:06.105Z,4.00
2019-03-19T00:40:05.529Z,4.00
2019-03-19T00:41:05.619Z,3.94
2019-03-19T00:42:05.676Z,3.94
2019-03-19T00:43:05.688Z,3.94
2019-03-19T00:44:05.030Z,4.00
2019-03-19T00:45:05.225Z,4.00
2019-03-19T00:46:05.591Z,3.94
2019-03-19T00:47:05.201Z,3.94
2019-03-19T00:48:05.687Z,3.94
2019-03-19T00:49:06.772Z,3.88
2019-03-19T00:50:05.597Z,3.88
2019-03-19T00:51:05.686Z,3.88
2019-03-19T00:52:05.832Z,3.88
2019-03-19T00:53:06.017Z,3.88
2019-03-19T00:54:05.595Z,3.88
2019-03-19T00:55:05.135Z,3.81
2019-03-19T00:56:05.117Z,3.81
2019-03-19T00:57:05.847Z,3.81
2019-03-19T00:58:05.213Z,4.00
2019-03-19T00:59:07.187Z,3.94
2019-03-19T01:00:05.937Z,3.94
2019-03-19T01:01:05.503Z,3.88
2019-03-19T01:02:05.348Z,3.88
2019-03-19T01:03:05.914Z,3.88
2019-03-19T01:04:05.602Z,3.88
2019-03-19T01:05:05.774Z,3.81
2019-03-19T01:06:05.758Z,3.81
2019-03-19T01:07:06.089Z,3.75
2019-03-19T01:08:05.612Z,3.75
2019-03-19T01:09:05.994Z,3.75
2019-03-19T01:10:05.210Z,3.75
2019-03-19T01:11:05.360Z,3.75
2019-03-19T01:12:05.843Z,3.69
2019-03-19T01:13:06.008Z,3.69
2019-03-19T01:14:05.121Z,3.69
2019-03-19T01:15:05.286Z,3.62
2019-03-19T01:16:05.842Z,3.62
2019-03-19T01:17:06.004Z,3.62
2019-03-19T01:18:05.758Z,3.62
2019-03-19T01:19:05.861Z,3.56
2019-03-19T01:20:05.437Z,3.62
2019-03-19T01:21:05.131Z,3.56
2019-03-19T01:22:05.636Z,3.56
2019-03-19T01:23:05.931Z,3.62
2019-03-19T01:24:05.533Z,3.62
2019-03-19T01:25:06.091Z,3.56
2019-03-19T01:26:06.003Z,3.56
2019-03-19T01:27:05.135Z,3.56
2019-03-19T01:28:05.601Z,3.56
2019-03-19T01:29:05.764Z,3.50
2019-03-19T01:30:05.200Z,3.50
2019-03-19T01:31:05.756Z,3.50
2019-03-19T01:32:05.374Z,3.50
2019-03-19T01:33:05.444Z,3.44
2019-03-19T01:34:06.030Z,3.50
2019-03-19T01:35:05.280Z,3.44
2019-03-19T01:36:05.868Z,3.44
2019-03-19T01:37:06.037Z,3.44
2019-03-19T01:38:05.078Z,3.44
2019-03-19T01:39:05.137Z,3.38
2019-03-19T01:40:05.370Z,3.38
2019-03-19T01:41:05.350Z,3.38
2019-03-19T01:42:05.586Z,3.38
2019-03-19T01:43:05.278Z,3.31
2019-03-19T01:44:05.607Z,3.38
2019-03-19T01:45:05.923Z,3.31
2019-03-19T01:46:06.004Z,3.31
2019-03-19T01:47:05.030Z,3.31
2019-03-19T01:48:05.364Z,3.25
2019-03-19T01:49:06.509Z,3.25
2019-03-19T01:50:05.838Z,3.31
2019-03-19T01:51:05.528Z,3.62
2019-03-19T01:52:05.998Z,3.69
2019-03-19T01:53:05.223Z,3.69
2019-03-19T01:54:05.286Z,3.56
2019-03-19T01:55:05.458Z,3.50
2019-03-19T01:56:05.819Z,3.44
2019-03-19T01:57:05.200Z,3.44
2019-03-19T01:58:05.518Z,3.44
2019-03-19T01:59:05.518Z,3.38
2019-03-19T02:00:05.289Z,3.38
2019-03-19T02:01:05.766Z,3.31
2019-03-19T02:02:05.278Z,3.31
2019-03-19T02:03:05.774Z,3.31
2019-03-19T02:04:06.285Z,3.25
2019-03-19T02:05:05.199Z,3.19
2019-03-19T02:06:05.617Z,3.12
2019-03-19T02:07:05.595Z,3.12
2019-03-19T02:08:06.003Z,3.06
2019-03-19T02:09:05.044Z,3.00
2019-03-19T02:10:05.127Z,3.00
2019-03-19T02:11:05.357Z,2.94
2019-03-19T02:12:05.772Z,2.94
2019-03-19T02:13:05.865Z,2.88
2019-03-19T02:14:05.367Z,2.88
2019-03-19T02:15:05.532Z,2.88
2019-03-19T02:16:05.915Z,2.81
2019-03-19T02:17:05.371Z,2.81
2019-03-19T02:18:05.044Z,2.75
2019-03-19T02:19:05.570Z,2.75
2019-03-19T02:20:05.788Z,2.75
2019-03-19T02:21:05.053Z,2.75
2019-03-19T02:22:05.863Z,2.75
2019-03-19T02:23:06.006Z,2.75
2019-03-19T02:24:05.221Z,2.75
2019-03-19T02:25:05.269Z,2.69
2019-03-19T02:26:15.814Z,2.75
2019-03-19T02:27:05.373Z,2.75
2019-03-19T02:28:05.776Z,2.69
2019-03-19T02:29:05.292Z,2.69
2019-03-19T02:30:05.452Z,2.69
2019-03-19T02:31:05.454Z,2.62
2019-03-19T02:32:06.845Z,2.62
2019-03-19T02:33:05.298Z,2.62
2019-03-19T02:34:05.446Z,2.62
2019-03-19T02:35:05.613Z,2.56
2019-03-19T02:36:05.854Z,2.56
2019-03-19T02:37:05.147Z,2.56
2019-03-19T02:38:05.300Z,2.56
2019-03-19T02:39:05.763Z,2.56
2019-03-19T02:40:05.941Z,2.62
2019-03-19T02:41:05.291Z,2.62
2019-03-19T02:42:06.037Z,2.56
2019-03-19T02:43:06.005Z,2.50
2019-03-19T02:44:05.733Z,2.50
2019-03-19T02:45:05.692Z,2.56
2019-03-19T02:46:05.854Z,2.50
2019-03-19T02:47:05.230Z,2.50
2019-03-19T02:48:05.215Z,2.50
2019-03-19T02:49:05.456Z,2.50
2019-03-19T02:50:05.132Z,2.44
2019-03-19T02:51:06.225Z,2.44
2019-03-19T02:52:06.016Z,2.44
2019-03-19T02:53:05.515Z,2.44
2019-03-19T02:54:05.553Z,2.38
2019-03-19T02:55:05.599Z,2.44
2019-03-19T02:56:06.598Z,2.38
2019-03-19T02:57:05.959Z,2.38
2019-03-19T02:58:06.108Z,2.38
2019-03-19T02:59:05.285Z,2.38
2019-03-19T03:00:05.735Z,2.38
2019-03-19T03:01:06.019Z,2.31
2019-03-19T03:02:06.021Z,2.38
2019-03-19T03:03:05.220Z,2.38
2019-03-19T03:04:05.528Z,2.31
2019-03-19T03:05:05.138Z,2.31
2019-03-19T03:06:05.287Z,2.31
2019-03-19T03:07:05.679Z,2.25
2019-03-19T03:08:05.771Z,2.25
2019-03-19T03:09:05.351Z,2.25
2019-03-19T03:10:05.862Z,2.25
2019-03-19T03:11:05.332Z,2.19
2019-03-19T03:12:05.702Z,2.19
2019-03-19T03:13:05.766Z,2.25
2019-03-19T03:14:05.930Z,2.25
2019-03-19T03:15:05.396Z,2.25
2019-03-19T03:16:05.915Z,2.25
2019-03-19T03:17:05.226Z,2.19
2019-03-19T03:18:05.568Z,2.19
2019-03-19T03:19:05.873Z,2.25
2019-03-19T03:20:05.878Z,2.19
2019-03-19T03:21:06.099Z,2.19
2019-03-19T03:22:05.133Z,2.19
2019-03-19T03:23:05.848Z,2.19
2019-03-19T03:24:05.368Z,2.19
2019-03-19T03:25:05.520Z,2.19
2019-03-19T03:26:05.207Z,2.19
2019-03-19T03:27:05.456Z,2.25
2019-03-19T03:28:05.534Z,2.31
2019-03-19T03:29:05.771Z,2.25
2019-03-19T03:30:05.876Z,2.31
2019-03-19T03:31:06.959Z,2.31
2019-03-19T03:32:05.691Z,2.25
2019-03-19T03:33:05.930Z,2.31
2019-03-19T03:34:05.121Z,2.31
2019-03-19T03:35:05.848Z,2.38
2019-03-19T03:36:05.526Z,2.38
2019-03-19T03:37:05.592Z,2.44
2019-03-19T03:38:05.127Z,2.44
2019-03-19T03:39:05.394Z,2.44
2019-03-19T03:40:05.531Z,2.50
2019-03-19T03:41:05.668Z,2.50
2019-03-19T03:42:05.362Z,2.56
2019-03-19T03:43:05.198Z,2.50
2019-03-19T03:44:05.272Z,2.50
2019-03-19T03:45:05.613Z,2.50
2019-03-19T03:46:06.016Z,2.56
2019-03-19T03:47:05.680Z,2.56
2019-03-19T03:48:05.219Z,2.50
2019-03-19T03:49:05.690Z,2.56
2019-03-19T03:50:05.947Z,2.50
2019-03-19T03:51:05.930Z,2.56
2019-03-19T03:52:05.222Z,2.56
2019-03-19T03:53:05.936Z,2.50
2019-03-19T03:54:05.284Z,2.50
2019-03-19T03:55:05.969Z,2.50
2019-03-19T03:56:05.209Z,2.50
2019-03-19T03:57:05.827Z,2.44
2019-03-19T03:58:05.412Z,2.44
2019-03-19T03:59:05.442Z,2.38
2019-03-19T04:00:05.779Z,2.38
2019-03-19T04:01:05.202Z,2.38
2019-03-19T04:02:05.452Z,2.44
2019-03-19T04:03:05.601Z,2.44
2019-03-19T04:04:05.693Z,2.50
2019-03-19T04:05:06.001Z,2.50
2019-03-19T04:06:05.270Z,2.50
2019-03-19T04:07:05.741Z,2.50
2019-03-19T04:08:05.731Z,2.50
2019-03-19T04:09:08.955Z,2.50
2019-03-19T04:10:05.938Z,2.50
2019-03-19T04:11:05.032Z,2.50
2019-03-19T04:12:05.325Z,2.50
2019-03-19T04:13:05.443Z,2.50
2019-03-19T04:14:06.127Z,2.50
2019-03-19T04:15:05.291Z,2.50
2019-03-19T04:16:05.350Z,2.56
2019-03-19T04:17:05.695Z,2.56
2019-03-19T04:18:05.933Z,2.56
2019-03-19T04:19:05.067Z,2.56
2019-03-19T04:20:05.268Z,2.50
2019-03-19T04:21:05.522Z,2.50
2019-03-19T04:22:05.683Z,2.56
2019-03-19T04:23:05.998Z,2.56
2019-03-19T04:24:05.698Z,2.56
2019-03-19T04:25:05.683Z,2.62
2019-03-19T04:26:05.527Z,2.75
2019-03-19T04:27:15.634Z,2.75
2019-03-19T04:28:05.850Z,2.69
2019-03-19T04:29:05.440Z,2.69
2019-03-19T04:30:05.445Z,2.88
2019-03-19T04:31:05.121Z,3.06
2019-03-19T04:32:05.283Z,3.12
2019-03-19T04:33:05.371Z,3.19
2019-03-19T04:34:05.615Z,3.25
2019-03-19T04:35:05.678Z,3.31
2019-03-19T04:36:06.453Z,3.44
2019-03-19T04:37:05.857Z,3.31
2019-03-19T04:38:05.939Z,3.25
2019-03-19T04:39:05.447Z,3.19
2019-03-19T04:40:05.080Z,3.12
2019-03-19T04:41:05.747Z,3.06
2019-03-19T04:42:05.850Z,3.06
2019-03-19T04:43:05.622Z,3.00
2019-03-19T04:44:06.015Z,3.00
2019-03-19T04:45:06.091Z,3.00
2019-03-19T04:46:05.626Z,2.94
2019-03-19T04:47:05.778Z,3.06
2019-03-19T04:48:05.669Z,3.25
2019-03-19T04:49:06.051Z,3.31
2019-03-19T04:50:05.212Z,3.31
2019-03-19T04:51:05.272Z,3.38
2019-03-19T04:52:05.291Z,3.38
2019-03-19T04:53:05.747Z,3.38
2019-03-19T04:54:05.285Z,3.31
2019-03-19T04:55:05.619Z,3.31
2019-03-19T04:56:05.849Z,3.25
2019-03-19T04:57:05.903Z,3.19
2019-03-19T04:58:05.452Z,3.06
2019-03-19T04:59:05.608Z,3.06
2019-03-19T05:00:06.024Z,3.06
2019-03-19T05:01:05.997Z,2.88
2019-03-19T05:02:05.521Z,2.75
2019-03-19T05:03:05.211Z,2.56
2019-03-19T05:04:05.705Z,2.38
2019-03-19T05:05:06.647Z,2.19
2019-03-19T05:06:05.932Z,2.06
2019-03-19T05:07:05.682Z,2.00
2019-03-19T05:08:05.534Z,1.88
2019-03-19T05:09:05.921Z,1.75
2019-03-19T05:10:05.912Z,1.62
2019-03-19T05:11:05.284Z,1.56
2019-03-19T05:12:05.845Z,1.44
2019-03-19T05:13:05.995Z,1.38
2019-03-19T05:14:05.249Z,1.38
2019-03-19T05:15:05.351Z,1.25
2019-03-19T05:16:05.606Z,1.25
2019-03-19T05:17:05.376Z,1.44
2019-03-19T05:18:05.692Z,1.38
2019-03-19T05:19:05.265Z,1.38
2019-03-19T05:20:05.855Z,1.44
2019-03-19T05:21:06.008Z,1.31
2019-03-19T05:22:05.873Z,1.25
2019-03-19T05:23:06.092Z,1.19
2019-03-19T05:24:05.690Z,1.12
2019-03-19T05:25:06.646Z,1.25
2019-03-19T05:26:06.262Z,1.31
2019-03-19T05:27:05.353Z,1.19
2019-03-19T05:28:05.538Z,1.12
2019-03-19T05:29:05.700Z,1.06
2019-03-19T05:30:06.088Z,1.06
2019-03-19T05:31:05.273Z,1.06
2019-03-19T05:32:05.615Z,1.06
2019-03-19T05:33:06.007Z,1.00
2019-03-19T05:34:05.206Z,0.94
2019-03-19T05:35:05.847Z,0.88
2019-03-19T05:36:06.016Z,0.88
2019-03-19T05:37:06.406Z,0.88
2019-03-19T05:38:05.219Z,0.81
2019-03-19T05:39:05.450Z,0.81
2019-03-19T05:40:05.710Z,0.81
2019-03-19T05:41:05.699Z,0.75
2019-03-19T05:42:05.054Z,0.75
2019-03-19T05:43:05.272Z,0.75
2019-03-19T05:44:05.946Z,0.75
2019-03-19T05:45:05.029Z,0.75
2019-03-19T05:46:05.837Z,0.75
2019-03-19T05:47:06.083Z,0.88
2019-03-19T05:48:06.007Z,0.94
2019-03-19T05:49:05.196Z,1.00
2019-03-19T05:50:05.295Z,1.00
2019-03-19T05:51:05.673Z,1.06
2019-03-19T05:52:05.393Z,1.12
2019-03-19T05:53:05.438Z,1.38
2019-03-19T05:54:05.779Z,1.50
2019-03-19T05:55:05.995Z,1.69
2019-03-19T05:56:05.431Z,1.88
2019-03-19T05:57:05.858Z,1.94
2019-03-19T05:58:05.847Z,2.06
2019-03-19T05:59:06.105Z,2.25
2019-03-19T06:00:05.356Z,2.44
2019-03-19T06:01:05.532Z,2.62
2019-03-19T06:02:05.611Z,2.81
2019-03-19T06:03:05.288Z,2.81
2019-03-19T06:04:05.675Z,2.88
2019-03-19T06:05:05.384Z,2.88
2019-03-19T06:06:05.528Z,2.94
2019-03-19T06:07:05.295Z,2.88
2019-03-19T06:08:05.521Z,2.88
2019-03-19T06:09:06.033Z,2.81
2019-03-19T06:10:05.848Z,2.75
2019-03-19T06:11:05.833Z,2.75
2019-03-19T06:12:05.197Z,2.75
2019-03-19T06:13:06.186Z,3.00
2019-03-19T06:14:05.263Z,3.12
2019-03-19T06:15:05.934Z,3.38
2019-03-19T06:16:06.007Z,3.56
2019-03-19T06:17:05.369Z,3.75
2019-03-19T06:18:05.529Z,3.81
2019-03-19T06:19:05.698Z,3.94
2019-03-19T06:20:05.777Z,4.06
2019-03-19T06:21:05.921Z,4.38
2019-03-19T06:22:05.195Z,4.69
2019-03-19T06:23:05.290Z,4.81
2019-03-19T06:24:05.621Z,5.00
2019-03-19T06:25:05.949Z,4.94
2019-03-19T06:26:05.287Z,5.19
2019-03-19T06:27:05.595Z,5.31
2019-03-19T06:28:05.833Z,5.56
2019-03-19T06:29:06.010Z,5.81
2019-03-19T06:30:05.602Z,6.06
2019-03-19T06:31:05.770Z,6.12
2019-03-19T06:32:05.526Z,6.12
2019-03-19T06:33:05.590Z,6.19
2019-03-19T06:34:06.076Z,6.25
2019-03-19T06:35:05.197Z,6.50
2019-03-19T06:36:05.532Z,6.56
2019-03-19T06:37:06.006Z,6.56
2019-03-19T06:38:05.434Z,6.56
2019-03-19T06:39:06.108Z,6.69
2019-03-19T06:40:05.506Z,6.75
2019-03-19T06:41:05.688Z,6.81
2019-03-19T06:42:05.767Z,6.94
2019-03-19T06:43:05.539Z,7.06
2019-03-19T06:44:06.012Z,7.12
2019-03-19T06:45:05.687Z,7.56
2019-03-19T06:46:05.528Z,7.56
2019-03-19T06:47:05.689Z,7.62
2019-03-19T06:48:05.136Z,7.62
2019-03-19T06:49:05.366Z,7.75
2019-03-19T06:50:05.682Z,7.81
2019-03-19T06:51:05.215Z,7.88
2019-03-19T06:52:05.439Z,8.00
2019-03-19T06:53:06.001Z,8.06
2019-03-19T06:54:05.601Z,8.19
2019-03-19T06:55:05.718Z,8.25
2019-03-19T06:56:05.758Z,8.31
2019-03-19T06:57:05.626Z,8.50
2019-03-19T06:58:10.727Z,8.50
2019-03-19T06:59:05.941Z,8.50
2019-03-19T07:00:05.507Z,8.50
2019-03-19T07:01:05.853Z,8.50
2019-03-19T07:02:05.594Z,8.50
2019-03-19T07:03:05.741Z,8.50
2019-03-19T07:04:05.203Z,8.50
2019-03-19T07:05:05.532Z,8.44
2019-03-19T07:06:05.998Z,8.44
2019-03-19T07:07:05.953Z,8.44
2019-03-19T07:08:06.023Z,8.38
2019-03-19T07:09:05.310Z,8.31
2019-03-19T07:10:05.365Z,8.31
2019-03-19T07:11:05.463Z,8.25
2019-03-19T07:12:05.199Z,8.19
2019-03-19T07:13:05.683Z,8.25
2019-03-19T07:14:05.205Z,8.44
2019-03-19T07:15:05.124Z,8.56
2019-03-19T07:16:05.728Z,8.69
2019-03-19T07:17:05.212Z,8.75
2019-03-19T07:18:06.098Z,8.88
2019-03-19T07:19:06.270Z,8.88
2019-03-19T07:20:05.447Z,9.06
2019-03-19T07:21:05.618Z,9.06
2019-03-19T07:22:05.632Z,9.19
2019-03-19T07:23:05.844Z,9.00
2019-03-19T07:24:05.200Z,9.00
2019-03-19T07:25:05.459Z,8.94
2019-03-19T07:26:05.836Z,9.00
2019-03-19T07:27:05.689Z,9.00
2019-03-19T07:28:06.004Z,9.00
2019-03-19T07:29:05.763Z,8.94
2019-03-19T07:30:06.021Z,8.88
2019-03-19T07:31:05.034Z,8.81
2019-03-19T07:32:05.476Z,8.75
2019-03-19T07:33:05.607Z,8.69
2019-03-19T07:34:05.772Z,8.62
2019-03-19T07:35:05.207Z,8.62
2019-03-19T07:36:06.352Z,8.56
2019-03-19T07:37:05.129Z,8.69
2019-03-19T07:38:05.357Z,8.69
2019-03-19T07:39:05.518Z,8.69
2019-03-19T07:40:05.697Z,8.62
2019-03-19T07:41:05.928Z,8.62
2019-03-19T07:42:05.434Z,8.56
2019-03-19T07:43:05.515Z,8.56
2019-03-19T07:44:05.329Z,8.50
2019-03-19T07:45:05.854Z,8.50
2019-03-19T07:46:06.119Z,8.50
2019-03-19T07:47:05.485Z,8.50
2019-03-19T07:48:05.536Z,8.50
2019-03-19T07:49:05.777Z,8.44
2019-03-19T07:50:05.372Z,8.56
2019-03-19T07:51:05.557Z,8.75
2019-03-19T07:52:05.607Z,8.94
2019-03-19T07:53:05.854Z,9.00
2019-03-19T07:54:06.008Z,9.00
2019-03-19T07:55:05.147Z,9.00
2019-03-19T07:56:05.203Z,8.88
2019-03-19T07:57:05.450Z,8.75
2019-03-19T07:58:05.621Z,8.75
2019-03-19T07:59:05.678Z,8.69
2019-03-19T08:00:05.929Z,8.62
2019-03-19T08:01:05.137Z,8.56
2019-03-19T08:02:05.213Z,8.50
2019-03-19T08:03:15.464Z,8.44
2019-03-19T08:04:05.925Z,8.38
2019-03-19T08:05:06.175Z,8.31
2019-03-19T08:06:05.871Z,8.31
2019-03-19T08:07:05.283Z,8.31
2019-03-19T08:08:05.510Z,8.38
2019-03-19T08:09:05.760Z,8.31
2019-03-19T08:10:05.856Z,8.25
2019-03-19T08:11:05.450Z,8.19
2019-03-19T08:12:05.518Z,8.19
2019-03-19T08:13:05.193Z,8.19
2019-03-19T08:14:05.843Z,8.19
2019-03-19T08:15:05.436Z,8.19
2019-03-19T08:16:05.670Z,8.19
2019-03-19T08:17:06.003Z,8.19
2019-03-19T08:18:05.770Z,8.25
2019-03-19T08:19:05.922Z,8.38
2019-03-19T08:20:05.136Z,8.62
2019-03-19T08:21:05.295Z,8.75
2019-03-19T08:22:05.738Z,8.81
2019-03-19T08:23:06.071Z,8.81
2019-03-19T08:24:05.204Z,8.81
2019-03-19T08:25:05.360Z,8.81
2019-03-19T08:26:05.532Z,8.94
2019-03-19T08:27:05.670Z,9.00
2019-03-19T08:28:05.280Z,9.06
2019-03-19T08:29:05.452Z,9.12
2019-03-19T08:30:05.675Z,9.12
2019-03-19T08:31:06.070Z,9.12
2019-03-19T08:32:05.678Z,9.25
2019-03-19T08:33:06.002Z,9.25
2019-03-19T08:34:05.360Z,9.38
2019-03-19T08:35:05.933Z,9.62
2019-03-19T08:36:09.464Z,10.00
2019-03-19T08:37:05.196Z,10.12
2019-03-19T08:38:06.175Z,10.19
2019-03-19T08:39:05.589Z,10.06
2019-03-19T08:40:05.453Z,10.00
2019-03-19T08:41:05.432Z,9.88
2019-03-19T08:42:05.781Z,9.75
2019-03-19T08:43:05.114Z,9.56
2019-03-19T08:44:05.773Z,9.44
2019-03-19T08:45:05.213Z,9.38
2019-03-19T08:46:05.293Z,9.31
2019-03-19T08:47:05.692Z,9.25
2019-03-19T08:48:05.858Z,9.25
2019-03-19T08:49:05.764Z,9.19
2019-03-19T08:50:06.416Z,9.12
2019-03-19T08:51:05.448Z,9.06
2019-03-19T08:52:05.134Z,9.00
2019-03-19T08:53:05.683Z,8.94
2019-03-19T08:54:05.929Z,9.00
2019-03-19T08:55:05.699Z,9.12
2019-03-19T08:56:06.106Z,9.00
2019-03-19T08:57:06.074Z,8.88
2019-03-19T08:58:05.686Z,8.75
2019-03-19T08:59:06.301Z,8.69
2019-03-19T09:00:05.833Z,8.62
2019-03-19T09:01:05.537Z,8.56
2019-03-19T09:02:05.468Z,8.50
2019-03-19T09:03:05.522Z,8.50
2019-03-19T09:04:05.849Z,8.44
2019-03-19T09:05:05.929Z,8.38
2019-03-19T09:06:05.450Z,8.38
2019-03-19T09:07:06.184Z,8.50
2019-03-19T09:08:05.285Z,8.50
2019-03-19T09:09:05.379Z,8.50
2019-03-19T09:10:05.443Z,8.56
2019-03-19T09:11:05.527Z,8.56
2019-03-19T09:12:05.759Z,8.50
2019-03-19T09:13:06.051Z,8.44
2019-03-19T09:14:05.648Z,8.38
2019-03-19T09:15:05.362Z,8.38
2019-03-19T09:16:05.604Z,8.31
2019-03-19T09:17:05.763Z,8.25
2019-03-19T09:18:05.445Z,8.31
2019-03-19T09:19:05.531Z,8.44
2019-03-19T09:20:05.848Z,8.44
2019-03-19T09:21:06.009Z,8.38
2019-03-19T09:22:05.198Z,8.25
2019-03-19T09:23:05.370Z,8.19
2019-03-19T09:24:05.848Z,8.19
2019-03-19T09:25:05.848Z,8.12
2019-03-19T09:26:05.535Z,8.12
2019-03-19T09:27:06.030Z,8.06
2019-03-19T09:28:05.834Z,8.00
2019-03-19T09:29:12.774Z,8.06
2019-03-19T09:30:05.533Z,8.00
2019-03-19T09:31:05.030Z,8.00
2019-03-19T09:32:05.558Z,8.00
2019-03-19T09:33:05.448Z,7.94
2019-03-19T09:34:05.231Z,7.94
2019-03-19T09:35:05.460Z,7.88
2019-03-19T09:36:05.514Z,7.81
2019-03-19T09:37:05.715Z,7.81
2019-03-19T09:38:05.747Z,7.75
2019-03-19T09:39:05.913Z,7.75
2019-03-19T09:40:05.349Z,7.75
2019-03-19T09:41:05.853Z,7.75
2019-03-19T09:42:05.445Z,7.69
2019-03-19T09:43:05.430Z,7.69
2019-03-19T09:44:06.886Z,7.69
2019-03-19T09:45:05.534Z,7.62
2019-03-19T09:46:05.618Z,7.56
2019-03-19T09:47:06.025Z,7.56
2019-03-19T09:48:05.035Z,7.50
2019-03-19T09:49:05.293Z,7.50
2019-03-19T09:50:05.681Z,7.50
2019-03-19T09:51:05.450Z,7.50
2019-03-19T09:52:05.761Z,7.44
2019-03-19T09:53:05.837Z,7.50
2019-03-19T09:54:05.640Z,7.50
2019-03-19T09:55:05.221Z,7.50
2019-03-19T09:56:05.910Z,7.56
2019-03-19T09:57:05.129Z,7.56
2019-03-19T09:58:05.203Z,7.62
2019-03-19T09:59:06.426Z,7.62
2019-03-19T10:00:05.836Z,7.62
2019-03-19T10:01:05.292Z,7.62
2019-03-19T10:02:06.009Z,7.62
2019-03-19T10:03:05.454Z,7.69
2019-03-19T10:04:05.531Z,7.69
2019-03-19T10:05:05.705Z,7.69
2019-03-19T10:06:13.810Z,7.69
2019-03-19T10:07:06.505Z,7.75
2019-03-19T10:08:05.132Z,7.75
2019-03-19T10:09:05.117Z,7.75
2019-03-19T10:10:05.748Z,7.69
2019-03-19T10:11:05.609Z,7.69
2019-03-19T10:12:07.026Z,7.69
2019-03-19T10:13:05.697Z,7.69
2019-03-19T10:14:05.756Z,7.69
2019-03-19T10:15:06.096Z,7.69
2019-03-19T10:16:07.579Z,7.69
2019-03-19T10:17:05.281Z,7.69
2019-03-19T10:18:06.007Z,7.69
2019-03-19T10:19:05.217Z,7.69
2019-03-19T10:20:05.349Z,7.75
2019-03-19T10:21:06.078Z,7.75
2019-03-19T10:22:05.519Z,7.75
2019-03-19T10:23:05.134Z,7.75
2019-03-19T10:24:05.189Z,7.75
2019-03-19T10:25:05.542Z,7.75
2019-03-19T10:26:05.673Z,7.75
2019-03-19T10:27:05.850Z,7.75
2019-03-19T10:28:06.085Z,7.75
2019-03-19T10:29:05.932Z,7.75
2019-03-19T10:30:05.681Z,7.75
2019-03-19T10:31:05.295Z,7.75
2019-03-19T10:32:05.455Z,7.81
2019-03-19T10:33:05.693Z,7.81
2019-03-19T10:34:05.840Z,7.81
2019-03-19T10:35:06.099Z,7.81
2019-03-19T10:36:05.223Z,7.81
2019-03-19T10:37:05.287Z,7.81
2019-03-19T10:38:05.475Z,7.88
2019-03-19T10:39:05.601Z,7.88
2019-03-19T10:40:05.768Z,7.88
2019-03-19T10:41:05.936Z,7.88
2019-03-19T10:42:05.936Z,7.88
2019-03-19T10:43:06.024Z,7.88
2019-03-19T10:44:05.627Z,7.94
2019-03-19T10:45:05.670Z,7.94
2019-03-19T10:46:05.920Z,7.94
2019-03-19T10:47:05.056Z,7.94
2019-03-19T10:48:05.288Z,7.94
2019-03-19T10:49:05.837Z,7.94
2019-03-19T10:50:05.422Z,7.94
2019-03-19T10:51:06.419Z,7.94
2019-03-19T10:52:05.675Z,7.94
2019-03-19T10:53:05.286Z,7.94
2019-03-19T10:54:05.837Z,7.94
2019-03-19T10:55:06.088Z,7.94
2019-03-19T10:56:05.775Z,7.94
2019-03-19T10:57:05.791Z,7.94
2019-03-19T10:58:10.819Z,7.94
2019-03-19T10:59:05.764Z,7.94
2019-03-19T11:00:05.199Z,8.00
2019-03-19T11:01:05.453Z,8.06
2019-03-19T11:02:06.171Z,8.12
2019-03-19T11:03:05.614Z,8.12
2019-03-19T11:04:06.171Z,8.19
2019-03-19T11:05:05.693Z,8.25
2019-03-19T11:06:05.920Z,8.31
2019-03-19T11:07:06.173Z,8.38
2019-03-19T11:08:05.595Z,8.44
2019-03-19T11:09:05.674Z,8.44
2019-03-19T11:10:06.028Z,8.50
2019-03-19T11:11:05.986Z,8.50
2019-03-19T11:12:05.549Z,8.56
2019-03-19T11:13:05.998Z,8.56
2019-03-19T11:14:05.212Z,8.62
2019-03-19T11:15:05.552Z,8.69
2019-03-19T11:16:06.029Z,8.75
2019-03-19T11:17:05.126Z,8.75
2019-03-19T11:18:05.540Z,8.81
2019-03-19T11:19:05.587Z,8.88
2019-03-19T11:20:05.322Z,8.88
2019-03-19T11:21:05.461Z,8.94
2019-03-19T11:22:05.688Z,8.94
2019-03-19T11:23:06.005Z,8.94
2019-03-19T11:24:05.033Z,8.88
2019-03-19T11:25:05.526Z,8.94
2019-03-19T11:26:05.613Z,8.94
2019-03-19T11:27:05.190Z,8.94
2019-03-19T11:28:05.851Z,8.88
2019-03-19T11:29:06.006Z,9.00
2019-03-19T11:30:06.557Z,8.94
2019-03-19T11:31:05.208Z,8.94
2019-03-19T11:32:06.418Z,8.94
2019-03-19T11:33:05.272Z,8.94
2019-03-19T11:34:05.453Z,8.94
2019-03-19T11:35:05.747Z,8.88
2019-03-19T11:36:05.299Z,8.88
2019-03-19T11:37:05.288Z,8.94
2019-03-19T11:38:05.455Z,9.12
2019-03-19T11:39:05.673Z,9.69
2019-03-19T11:40:06.026Z,9.75
2019-03-19T11:41:07.224Z,9.75
2019-03-19T11:42:06.124Z,9.88
2019-03-19T11:43:05.357Z,9.75
2019-03-19T11:44:05.848Z,9.56
2019-03-19T11:45:05.148Z,9.44
2019-03-19T11:46:05.204Z,9.31
2019-03-19T11:47:05.514Z,9.19
2019-03-19T11:48:05.307Z,9.12
2019-03-19T11:49:05.527Z,9.44
2019-03-19T11:50:05.930Z,9.62
2019-03-19T11:51:06.177Z,9.50
2019-03-19T11:52:05.279Z,9.38
2019-03-19T11:53:05.825Z,9.25
2019-03-19T11:54:06.020Z,9.38
2019-03-19T11:55:05.439Z,9.38
2019-03-19T11:56:05.535Z,9.31
2019-03-19T11:57:05.119Z,9.25
2019-03-19T11:58:05.224Z,9.25
2019-03-19T11:59:05.370Z,9.25
2019-03-19T12:00:11.020Z,9.25
2019-03-19T12:01:05.203Z,9.19
2019-03-19T12:02:05.843Z,9.19
2019-03-19T12:03:12.607Z,9.19
2019-03-19T12:04:05.874Z,9.19
2019-03-19T12:05:05.768Z,9.19
2019-03-19T12:06:05.856Z,9.12
2019-03-19T12:07:05.589Z,9.12
2019-03-19T12:08:05.609Z,9.06
2019-03-19T12:09:05.759Z,9.06
2019-03-19T12:10:06.014Z,9.12
2019-03-19T12:11:05.855Z,9.38
2019-03-19T12:12:05.959Z,9.44
2019-03-19T12:13:05.312Z,9.69
2019-03-19T12:14:05.274Z,9.88
2019-03-19T12:15:05.513Z,10.00
2019-03-19T12:16:05.619Z,9.94
2019-03-19T12:17:05.846Z,9.81
2019-03-19T12:18:06.011Z,9.75
2019-03-19T12:19:05.299Z,9.62
2019-03-19T12:20:06.012Z,9.56
2019-03-19T12:21:05.511Z,9.50
2019-03-19T12:22:05.232Z,9.44
2019-03-19T12:23:05.278Z,9.31
2019-03-19T12:24:05.866Z,9.25
2019-03-19T12:25:06.098Z,9.19
2019-03-19T12:26:05.110Z,9.38
2019-03-19T12:27:05.606Z,9.44
2019-03-19T12:28:05.288Z,9.56
2019-03-19T12:29:05.451Z,9.69
2019-03-19T12:30:05.947Z,9.81
2019-03-19T12:31:05.862Z,10.00
2019-03-19T12:32:05.481Z,10.00
2019-03-19T12:33:05.906Z,10.12
2019-03-19T12:34:05.929Z,10.19
2019-03-19T12:35:06.002Z,10.19
2019-03-19T12:36:05.377Z,10.31
2019-03-19T12:37:05.439Z,10.38
2019-03-19T12:38:05.694Z,10.38
2019-03-19T12:39:05.989Z,10.44
2019-03-19T12:40:05.227Z,10.62
2019-03-19T12:41:05.702Z,10.56
2019-03-19T12:42:06.093Z,10.44
2019-03-19T12:43:05.710Z,10.31
2019-03-19T12:44:05.268Z,10.25
2019-03-19T12:45:05.603Z,10.06
2019-03-19T12:46:05.383Z,9.94
2019-03-19T12:47:05.555Z,9.75
2019-03-19T12:48:05.225Z,9.62
2019-03-19T12:49:05.290Z,9.50
2019-03-19T12:50:05.932Z,9.44
2019-03-19T12:51:05.354Z,9.38
2019-03-19T12:52:06.007Z,9.25
2019-03-19T12:53:05.640Z,9.19
2019-03-19T12:54:05.204Z,9.12
2019-03-19T12:55:05.686Z,9.06
2019-03-19T12:56:05.292Z,9.00
2019-03-19T12:57:05.233Z,8.94
2019-03-19T12:58:05.448Z,8.94
2019-03-19T12:59:05.609Z,8.94
2019-03-19T13:00:05.248Z,9.06
2019-03-19T13:01:05.597Z,9.06
2019-03-19T13:02:05.128Z,9.12
2019-03-19T13:03:06.270Z,9.25
2019-03-19T13:04:05.784Z,9.31
2019-03-19T13:05:06.006Z,9.38
2019-03-19T13:06:05.354Z,9.44
2019-03-19T13:07:05.848Z,9.44
2019-03-19T13:08:05.679Z,9.50
2019-03-19T13:09:05.923Z,9.50
2019-03-19T13:10:05.545Z,9.50
2019-03-19T13:11:05.987Z,9.44
2019-03-19T13:12:05.612Z,9.38
2019-03-19T13:13:05.123Z,9.31
2019-03-19T13:14:05.773Z,9.25
2019-03-19T13:15:05.199Z,9.25
2019-03-19T13:16:05.368Z,9.12
2019-03-19T13:17:05.847Z,9.12